Time;durP1;ratioP1;P1;durP2;ratioP2;P2;SDS_P1;SDS_P2;PMS_P1;PMS_P2;Temp;Humidity;BMP_temperature;BMP_pressure;BME280_temperature;BME280_humidity;BME280_pressure;Samples;Min_cycle;Max_cycle;Signal;HPM_P1;HPM_P2
2021/12/13 00:01:10;;;;;;;;;32.00;25.25;;;;;17.48;100.00;102236.72;5036626;28;45664;-83
2021/12/13 00:03:53;;;;;;;;;33.75;24.00;;;;;17.45;100.00;102235.09;5030036;28;45609;-83
2021/12/13 00:06:29;;;;;;;;;26.50;23.00;;;;;17.39;100.00;102240.03;5035051;28;47237;-83
2021/12/13 00:09:06;;;;;;;;;23.00;21.00;;;;;17.37;100.00;102231.28;5030475;28;45285;-83
2021/12/13 00:11:45;;;;;;;;;26.75;23.75;;;;;17.27;100.00;102217.75;5024870;28;45402;-82
2021/12/13 00:14:27;;;;;;;;;26.50;18.75;;;;;17.34;100.00;102227.00;5034239;28;45584;-83
2021/12/13 00:17:10;;;;;;;;;26.25;24.00;;;;;17.42;100.00;102231.78;5032395;28;46273;-83
2021/12/13 00:19:41;;;;;;;;;21.75;17.25;;;;;17.40;100.00;102218.53;5034609;28;45392;-83
2021/12/13 00:22:37;;;;;;;;;;;;;;;;;;;;;
2021/12/13 00:25:11;;;;;;;;;25.00;18.00;;;;;17.42;100.00;102213.09;5033009;28;72076;-83
2021/12/13 00:27:49;;;;;;;;;22.75;17.75;;;;;17.43;100.00;102209.47;5037159;28;46419;-83
2021/12/13 00:30:29;;;;;;;;;22.50;20.25;;;;;17.41;100.00;102206.03;5036704;28;46474;-83
2021/12/13 00:33:26;;;;;;;;;30.75;23.00;;;;;17.47;100.00;102205.63;5036770;28;45728;-82
2021/12/13 00:36:03;;;;;;;;;26.00;16.25;;;;;17.41;100.00;102198.03;5034811;28;45422;-82
2021/12/13 00:38:36;;;;;;;;;22.50;19.00;;;;;17.41;100.00;102201.56;5032788;28;46140;-83
2021/12/13 00:41:07;;;;;;;;;23.25;19.75;;;;;17.25;100.00;102198.31;5038616;28;45901;-82
2021/12/13 00:47:06;;;;;;;;;29.50;21.25;;;;;17.37;100.00;102205.44;4990118;28;45529;-82
2021/12/13 00:49:35;;;;;;;;;24.00;17.75;;;;;17.09;100.00;102205.72;5039130;28;46155;-81
2021/12/13 00:52:02;;;;;;;;;20.75;17.25;;;;;17.33;100.00;102195.06;5041007;28;45848;-82
2021/12/13 00:54:39;;;;;;;;;23.50;20.25;;;;;17.41;100.00;102193.53;5041513;28;45328;-82
2021/12/13 00:57:30;;;;;;;;;25.00;16.50;;;;;17.81;100.00;102201.31;5038949;28;45834;-82
2021/12/13 01:00:04;;;;;;;;;25.00;17.00;;;;;17.36;100.00;102206.41;5027337;28;45358;-82
2021/12/13 01:02:54;;;;;;;;;17.25;15.75;;;;;17.44;100.00;102209.34;5040744;28;45687;-82
2021/12/13 01:05:56;;;;;;;;;21.75;16.50;;;;;17.36;100.00;102203.72;5034647;28;45538;-82
2021/12/13 01:08:36;;;;;;;;;25.00;19.25;;;;;17.48;100.00;102218.00;5039843;28;45400;-82
2021/12/13 01:11:34;;;;;;;;;22.75;21.25;;;;;17.40;100.00;102215.00;5040053;28;45427;-83
2021/12/13 01:14:14;;;;;;;;;24.25;18.00;;;;;17.26;100.00;102200.00;5040841;28;45850;-82
2021/12/13 01:17:02;;;;;;;;;27.75;17.25;;;;;17.55;100.00;102200.56;5041248;28;45317;-81
2021/12/13 01:19:55;;;;;;;;;27.00;17.00;;;;;17.32;100.00;102202.22;5041021;28;45356;-82
2021/12/13 01:22:48;;;;;;;;;21.75;15.50;;;;;17.54;100.00;102202.38;5041308;28;47740;-84
2021/12/13 01:25:48;;;;;;;;;22.50;16.50;;;;;17.65;100.00;102204.28;5023046;28;45420;-83
2021/12/13 01:28:22;;;;;;;;;24.00;17.50;;;;;17.63;100.00;102200.88;5041142;28;45333;-83
2021/12/13 01:30:56;;;;;;;;;30.25;17.50;;;;;17.69;100.00;102200.41;5039212;28;45590;-82
2021/12/13 01:33:24;;;;;;;;;15.50;13.50;;;;;17.51;100.00;102204.41;5040370;28;46460;-81
2021/12/13 01:35:53;;;;;;;;;22.25;16.50;;;;;17.47;100.00;102195.78;5040524;28;45619;-81
2021/12/13 01:38:31;;;;;;;;;24.75;18.25;;;;;17.53;100.00;102208.69;5039144;28;45533;-82
2021/12/13 01:40:56;;;;;;;;;24.00;16.50;;;;;17.32;100.00;102207.56;5040672;28;45318;-82
2021/12/13 01:43:29;;;;;;;;;23.25;17.25;;;;;17.54;100.00;102199.72;5041849;28;45509;-83
2021/12/13 01:45:57;;;;;;;;;26.00;16.25;;;;;17.55;100.00;102203.22;5022478;28;45241;-83
2021/12/13 01:48:32;;;;;;;;;19.25;17.25;;;;;17.73;100.00;102209.06;5040052;28;45360;-83
2021/12/13 01:51:08;;;;;;;;;29.00;19.25;;;;;17.72;100.00;102212.69;5038505;28;45764;-83
2021/12/13 01:53:48;;;;;;;;;19.00;15.75;;;;;17.83;100.00;102210.94;5039031;28;46703;-83
2021/12/13 02:02:20;;;;;;;;;25.75;18.50;;;;;17.63;100.00;102203.53;5031888;28;45456;-81
2021/12/13 02:04:58;;;;;;;;;29.00;17.25;;;;;18.15;100.00;102199.63;5026781;28;46328;-83
2021/12/13 02:07:27;;;;;;;;;25.75;18.50;;;;;17.59;100.00;102212.72;5022226;28;45469;-83
2021/12/13 02:09:57;;;;;;;;;18.75;17.50;;;;;17.61;100.00;102212.59;5022553;28;45457;-81
2021/12/13 02:12:26;;;;;;;;;22.50;16.75;;;;;17.62;100.00;102206.28;5039892;28;45406;-83
2021/12/13 02:17:44;;;;;;;;;30.00;19.00;;;;;17.64;100.00;102217.75;5039878;28;45553;-83
2021/12/13 02:20:34;;;;;;;;;22.25;15.75;;;;;17.66;100.00;102207.81;5039904;28;45438;-83
2021/12/13 02:23:00;;;;;;;;;25.50;17.75;;;;;17.56;100.00;102221.81;5038631;28;45229;-83
2021/12/13 02:25:44;;;;;;;;;26.25;16.25;;;;;17.55;100.00;102229.94;5040021;28;45527;-84
2021/12/13 02:28:14;;;;;;;;;25.25;16.00;;;;;17.57;100.00;102226.16;5040145;28;45521;-83
2021/12/13 02:30:50;;;;;;;;;18.75;16.00;;;;;17.59;100.00;102218.91;5039816;28;45423;-83
2021/12/13 02:33:22;;;;;;;;;22.00;17.00;;;;;17.40;100.00;102220.34;5038400;28;45513;-83
2021/12/13 02:36:13;;;;;;;;;31.25;19.25;;;;;17.37;100.00;102231.28;5039276;28;45742;-83
2021/12/13 02:38:43;;;;;;;;;24.25;19.25;;;;;17.25;100.00;102224.16;5038868;28;45506;-83
2021/12/13 02:41:10;;;;;;;;;21.25;17.50;;;;;17.26;100.00;102209.84;5039660;28;45491;-83
2021/12/13 02:43:41;;;;;;;;;22.50;18.00;;;;;17.02;100.00;102202.66;5039782;28;45408;-83
2021/12/13 02:46:08;;;;;;;;;23.50;18.00;;;;;17.23;100.00;102218.06;5039309;28;46412;-83
2021/12/13 02:48:45;;;;;;;;;26.25;20.50;;;;;17.25;100.00;102216.13;5039650;28;45434;-83
2021/12/13 02:51:14;;;;;;;;;28.00;18.75;;;;;17.19;100.00;102223.63;5037929;28;45321;-83
2021/12/13 02:53:50;;;;;;;;;29.50;23.00;;;;;17.31;100.00;102210.34;5021980;28;45584;-82
2021/12/13 02:56:20;;;;;;;;;28.25;17.00;;;;;17.32;100.00;102218.25;5039290;28;45625;-82
2021/12/13 02:58:47;;;;;;;;;27.00;19.75;;;;;17.28;100.00;102210.59;5039603;28;45529;-82
2021/12/13 03:01:35;;;;;;;;;24.00;19.00;;;;;17.36;100.00;102213.56;5040682;28;45333;-82
2021/12/13 03:04:06;;;;;;;;;23.75;17.25;;;;;17.36;100.00;102210.88;5042979;28;45475;-82
2021/12/13 03:06:35;;;;;;;;;18.75;12.75;;;;;17.29;100.00;102213.16;5043088;28;45424;-82
2021/12/13 03:09:10;;;;;;;;;25.25;16.25;;;;;17.33;100.00;102205.75;5041765;28;45420;-82
2021/12/13 03:11:35;;;;;;;;;26.50;18.25;;;;;17.26;100.00;102205.34;5041766;28;45407;-82
2021/12/13 03:14:08;;;;;;;;;28.75;15.25;;;;;17.28;100.00;102210.59;5042710;28;45434;-82
2021/12/13 03:16:57;;;;;;;;;19.50;15.50;;;;;17.30;100.00;102208.66;5041573;28;47072;-82
2021/12/13 03:19:37;;;;;;;;;30.50;18.75;;;;;17.54;100.00;102218.41;5042590;28;45348;-82
2021/12/13 03:22:22;;;;;;;;;21.50;17.75;;;;;17.47;100.00;102211.81;5042722;28;45310;-82
2021/12/13 03:25:01;;;;;;;;;18.75;16.25;;;;;17.71;100.00;102205.66;5041391;28;45546;-82
2021/12/13 03:27:42;;;;;;;;;21.75;15.75;;;;;17.95;100.00;102201.13;5042890;28;46188;-82
2021/12/13 03:30:18;;;;;;;;;19.75;17.75;;;;;17.87;100.00;102198.19;5042242;28;45292;-82
2021/12/13 03:32:54;;;;;;;;;19.75;17.00;;;;;17.84;100.00;102193.09;5042697;28;45295;-82
2021/12/13 03:35:35;;;;;;;;;24.75;16.50;;;;;17.49;100.00;102203.66;5041827;28;45332;-82
2021/12/13 03:38:07;;;;;;;;;23.75;12.25;;;;;17.46;100.00;102199.41;5042103;28;46408;-82
2021/12/13 03:40:35;;;;;;;;;18.00;15.50;;;;;17.56;100.00;102196.94;5041279;28;45996;-82
2021/12/13 03:43:09;;;;;;;;;19.75;14.25;;;;;17.38;100.00;102199.13;5042447;28;45550;-82
2021/12/13 03:45:42;;;;;;;;;21.00;15.25;;;;;17.63;100.00;102190.19;5041216;28;45450;-82
2021/12/13 03:48:12;;;;;;;;;22.75;14.50;;;;;17.27;100.00;102190.19;5042242;28;46230;-82
2021/12/13 03:50:43;;;;;;;;;23.75;15.50;;;;;17.69;100.00;102183.53;5042311;28;45165;-82
2021/12/13 03:53:14;;;;;;;;;23.50;18.50;;;;;17.72;100.00;102189.50;5024659;28;45739;-82
2021/12/13 03:55:43;;;;;;;;;21.00;10.75;;;;;17.35;100.00;102174.47;5042374;28;45342;-82
2021/12/13 03:58:14;;;;;;;;;25.50;16.25;;;;;17.74;100.00;102182.22;5042218;28;46103;-82
2021/12/13 04:00:50;;;;;;;;;18.00;17.50;;;;;17.66;100.00;102170.41;5042194;28;45579;-82
2021/12/13 04:03:17;;;;;;;;;15.75;15.00;;;;;17.38;100.00;102177.78;5042094;28;45553;-82
2021/12/13 04:05:44;;;;;;;;;19.25;17.50;;;;;17.26;100.00;102180.47;5042025;28;45424;-82
2021/12/13 04:08:11;;;;;;;;;22.50;14.00;;;;;17.27;100.00;102177.69;5042144;28;45494;-82
2021/12/13 04:10:44;;;;;;;;;18.75;14.50;;;;;17.32;100.00;102182.69;5041940;28;45385;-82
2021/12/13 04:13:14;;;;;;;;;19.00;14.75;;;;;17.34;100.00;102188.78;5041806;28;45389;-82
2021/12/13 04:16:10;;;;;;;;;15.00;13.25;;;;;17.43;100.00;102188.94;5023936;28;45747;-82
2021/12/13 04:21:27;;;;;;;;;17.00;11.75;;;;;17.45;100.00;102173.69;5041750;28;45506;-82
2021/12/13 04:23:58;;;;;;;;;19.50;14.50;;;;;17.43;100.00;102182.75;5024186;28;45456;-82
2021/12/13 04:26:26;;;;;;;;;20.75;15.00;;;;;17.42;100.00;102181.91;5041731;28;45464;-83
2021/12/13 04:28:55;;;;;;;;;17.75;12.75;;;;;17.43;100.00;102185.44;5023858;28;47369;-82
2021/12/13 04:31:23;;;;;;;;;18.50;12.50;;;;;17.44;100.00;102184.47;5041431;28;45745;-82
2021/12/13 04:33:53;;;;;;;;;16.25;15.00;;;;;17.47;100.00;102182.44;5040315;28;45470;-82
2021/12/13 04:36:28;;;;;;;;;19.25;10.25;;;;;17.40;100.00;102180.31;5041223;28;45361;-82
2021/12/13 04:39:03;;;;;;;;;17.75;15.00;;;;;17.25;100.00;102182.28;5041308;28;46308;-82
2021/12/13 04:41:45;;;;;;;;;16.25;10.00;;;;;17.27;100.00;102188.38;5040145;28;45509;-82
2021/12/13 04:44:15;;;;;;;;;17.25;12.75;;;;;17.27;100.00;102188.38;5041654;28;45333;-82
2021/12/13 04:46:43;;;;;;;;;15.75;11.25;;;;;17.29;100.00;102197.13;5041671;28;45614;-82
2021/12/13 04:49:15;;;;;;;;;12.75;10.25;;;;;17.22;100.00;102195.84;5039508;28;46728;-82
2021/12/13 04:51:45;;;;;;;;;15.75;9.75;;;;;17.15;100.00;102187.44;5041317;28;45435;-82
2021/12/13 04:54:14;;;;;;;;;14.75;11.25;;;;;17.42;100.00;102186.38;5041226;28;45337;-82
2021/12/13 04:56:41;;;;;;;;;14.50;11.50;;;;;17.07;100.00;102197.81;5023309;28;45570;-82
2021/12/13 04:59:10;;;;;;;;;16.50;11.00;;;;;17.51;100.00;102194.59;5041196;28;45404;-82
2021/12/13 05:01:37;;;;;;;;;18.50;14.00;;;;;17.76;100.00;102195.47;5041383;28;45334;-82
2021/12/13 05:04:05;;;;;;;;;20.75;16.75;;;;;17.23;100.00;102202.91;5041067;28;45243;-82
2021/12/13 05:06:35;;;;;;;;;18.25;15.50;;;;;17.36;100.00;102186.84;5041524;28;45561;-82
2021/12/13 05:09:05;;;;;;;;;15.25;14.75;;;;;17.64;100.00;102199.06;5041433;28;46565;-82
2021/12/13 05:11:36;;;;;;;;;16.25;14.25;;;;;17.60;100.00;102203.72;5041311;28;45492;-83
2021/12/13 05:14:04;;;;;;;;;21.50;13.00;;;;;17.51;100.00;102210.59;5041608;28;45393;-83
2021/12/13 05:16:52;;;;;;;;;21.50;15.25;;;;;17.74;100.00;102206.28;5041146;28;45476;-83
2021/12/13 05:19:35;;;;;;;;;23.25;15.75;;;;;17.36;100.00;102203.72;5039286;28;46307;-83
2021/12/13 05:22:05;;;;;;;;;17.75;14.25;;;;;17.66;100.00;102207.81;5026300;28;45616;-82
2021/12/13 05:24:34;;;;;;;;;16.00;12.75;;;;;17.23;100.00;102202.03;5040123;28;45237;-82
2021/12/13 05:27:09;;;;;;;;;18.00;14.50;;;;;17.24;100.00;102211.75;5041193;28;45481;-83
2021/12/13 05:29:42;;;;;;;;;18.75;11.00;;;;;17.25;100.00;102213.47;5040605;28;46431;-83
2021/12/13 05:32:15;;;;;;;;;13.75;9.25;;;;;16.99;100.00;102226.88;5022648;28;45456;-81
2021/12/13 05:34:44;;;;;;;;;16.00;14.50;;;;;17.37;100.00;102212.59;5037712;28;45681;-82
2021/12/13 05:37:10;;;;;;;;;22.75;15.25;;;;;17.38;100.00;102206.28;5034786;28;45471;-81
2021/12/13 05:39:38;;;;;;;;;17.25;11.00;;;;;16.90;100.00;102203.50;5040381;28;45555;-81
2021/12/13 05:42:08;;;;;;;;;13.00;10.25;;;;;16.90;100.00;102216.84;5040291;28;45673;-81
2021/12/13 05:44:37;;;;;;;;;18.50;13.50;;;;;16.95;100.00;102216.50;5022177;28;45188;-81
2021/12/13 05:47:07;;;;;;;;;17.00;10.50;;;;;16.84;100.00;102211.97;5039753;28;45862;-81
2021/12/13 05:49:40;;;;;;;;;15.75;13.25;;;;;16.78;100.00;102217.69;5040791;28;45473;-81
2021/12/13 05:52:10;;;;;;;;;22.75;15.00;;;;;16.61;100.00;102215.31;5040317;28;45586;-82
2021/12/13 05:54:42;;;;;;;;;22.50;14.00;;;;;16.61;100.00;102210.00;5041802;28;45325;-81
2021/12/13 05:57:16;;;;;;;;;15.00;14.00;;;;;16.50;100.00;102217.88;5040415;28;45265;-81
2021/12/13 06:00:11;;;;;;;;;21.25;14.50;;;;;16.57;100.00;102212.00;5040916;28;49242;-81
2021/12/13 06:03:03;;;;;;;;;19.00;14.00;;;;;16.59;100.00;102211.91;5039561;28;45354;-82
2021/12/13 06:05:35;;;;;;;;;19.75;14.75;;;;;16.64;100.00;102215.16;5039805;28;45385;-82
2021/12/13 06:08:14;;;;;;;;;16.75;14.50;;;;;16.45;100.00;102219.06;5026398;28;45543;-83
2021/12/13 06:10:49;;;;;;;;;15.75;13.50;;;;;16.60;100.00;102213.63;5039824;28;46219;-82
2021/12/13 06:13:39;;;;;;;;;16.00;13.75;;;;;16.51;100.00;102223.09;5039777;28;45313;-82
2021/12/13 06:16:05;;;;;;;;;16.00;14.00;;;;;16.36;100.00;102208.19;5038979;28;45372;-82
2021/12/13 06:18:38;;;;;;;;;22.00;16.25;;;;;16.56;100.00;102210.31;5039724;28;45430;-82
2021/12/13 06:21:24;;;;;;;;;18.00;14.25;;;;;16.46;100.00;102214.59;5021610;28;46321;-82
2021/12/13 06:23:53;;;;;;;;;17.00;14.75;;;;;16.80;100.00;102221.13;5038810;28;45411;-82
2021/12/13 06:26:28;;;;;;;;;20.50;14.00;;;;;16.66;100.00;102226.59;5040324;28;45479;-81
2021/12/13 06:29:08;;;;;;;;;17.00;13.50;;;;;16.69;100.00;102223.69;5039722;28;45514;-82
2021/12/13 06:31:42;;;;;;;;;16.00;16.00;;;;;16.43;100.00;102230.78;5030077;28;46030;-82
2021/12/13 06:34:48;;;;;;;;;20.50;14.25;;;;;16.42;100.00;102226.41;5016594;28;45594;-83
2021/12/13 06:37:13;;;;;;;;;17.00;13.50;;;;;15.97;100.00;102225.91;5035125;28;45669;-82
2021/12/13 06:40:29;;;;;;;;;;;;;;;;;;;;;
2021/12/13 06:42:58;;;;;;;;;15.50;11.75;;;;;16.29;100.00;102226.41;5025453;28;75507;-82
2021/12/13 06:45:34;;;;;;;;;14.25;11.25;;;;;16.23;100.00;102231.28;5020880;28;45396;-82
2021/12/13 06:48:04;;;;;;;;;14.00;12.25;;;;;16.67;100.00;102229.13;5038121;28;45573;-81
2021/12/13 06:50:37;;;;;;;;;14.00;13.00;;;;;16.60;100.00;102233.13;5037665;28;45784;-83
2021/12/13 06:54:09;;;;;;;;;;;;;;;;;;;;;
2021/12/13 06:56:38;;;;;;;;;11.25;11.00;;;;;16.28;100.00;102230.03;5038722;28;73321;-86
2021/12/13 07:00:03;;;;;;;;;;;;;;;;;;;;;
2021/12/13 07:03:18;;;;;;;;;18.50;12.50;;;;;16.23;100.00;102234.78;5035475;28;72911;-87
2021/12/13 07:14:07;;;;;;;;;;;;;;;;;;;;;
2021/12/13 07:16:50;;;;;;;;;;;;;;;;;;;;;
2021/12/13 07:19:18;;;;;;;;;14.00;9.25;;;;;16.31;100.00;102216.47;4971325;28;75738;-86
2021/12/13 07:21:51;;;;;;;;;12.00;10.50;;;;;16.42;100.00;102211.25;5029983;28;45577;-85
2021/12/13 07:24:26;;;;;;;;;9.50;7.75;;;;;16.32;100.00;102226.19;5021921;28;45173;-85
2021/12/13 07:26:55;;;;;;;;;11.50;9.50;;;;;16.55;100.00;102224.63;5028441;28;45324;-85
2021/12/13 07:29:26;;;;;;;;;9.75;7.00;;;;;16.30;100.00;102222.75;5033184;28;46093;-84
2021/12/13 07:32:14;;;;;;;;;9.25;8.00;;;;;16.34;100.00;102216.28;5035025;28;45664;-85
2021/12/13 07:35:03;;;;;;;;;11.50;7.25;;;;;16.43;100.00;102218.31;5030550;28;45556;-84
2021/12/13 07:37:34;;;;;;;;;13.50;6.50;;;;;16.26;100.00;102226.59;5032426;28;45462;-83
2021/12/13 07:40:27;;;;;;;;;7.00;7.00;;;;;16.46;100.00;102235.91;5037184;28;45489;-83
2021/12/13 07:43:13;;;;;;;;;6.50;5.25;;;;;16.53;100.00;102239.88;5036450;28;45546;-82
2021/12/13 07:46:01;;;;;;;;;4.50;3.50;;;;;16.42;100.00;102237.94;5033641;28;45614;-90
2021/12/13 07:48:29;;;;;;;;;8.50;5.75;;;;;16.30;100.00;102240.56;5034330;28;45507;-82
2021/12/13 07:51:16;;;;;;;;;7.00;5.00;;;;;16.23;100.00;102236.59;5033154;28;45361;-83
2021/12/13 07:54:21;;;;;;;;;8.00;6.00;;;;;16.45;100.00;102234.22;5029015;28;45727;-84
2021/12/13 07:57:13;;;;;;;;;;;;;;;;;;;;;
2021/12/13 08:00:16;;;;;;;;;10.25;7.00;;;;;16.52;100.00;102232.81;5028903;28;72842;-82
2021/12/13 08:03:25;;;;;;;;;;;;;;;;;;;;;
2021/12/13 08:06:17;;;;;;;;;;;;;;;;;;;;;
2021/12/13 08:09:33;;;;;;;;;;;;;;;;;;;;;
2021/12/13 08:12:26;;;;;;;;;;;;;;;;;;;;;
2021/12/13 08:20:05;;;;;;;;;;;;;;;;;;;;;
2021/12/13 08:44:11;;;;;;;;;14.00;9.25;;;;;17.19;100.00;102236.13;4788058;29;45472;-84
2021/12/13 08:47:11;;;;;;;;;16.00;12.25;;;;;17.05;100.00;102257.59;4838214;29;45550;-83
2021/12/13 08:49:45;;;;;;;;;16.25;14.50;;;;;16.95;100.00;102251.19;4905592;28;45355;-83
2021/12/13 08:52:13;;;;;;;;;9.75;8.00;;;;;16.68;100.00;102253.97;4992631;28;45398;-84
2021/12/13 08:55:00;;;;;;;;;12.25;9.00;;;;;16.41;100.00;102254.88;5046632;28;46633;-85
2021/12/13 08:58:04;;;;;;;;;10.00;7.25;;;;;16.31;100.00;102244.94;5041120;28;45412;-85
2021/12/13 09:00:38;;;;;;;;;15.25;9.25;;;;;16.45;100.00;102245.72;5056630;28;45577;-84
2021/12/13 09:03:25;;;;;;;;;16.25;8.50;;;;;16.38;100.00;102255.09;5059312;28;45331;-85
2021/12/13 09:06:12;;;;;;;;;11.50;10.75;;;;;16.44;100.00;102261.81;5060670;28;45414;-84
2021/12/13 09:08:46;;;;;;;;;12.75;10.75;;;;;16.86;100.00;102259.84;5061189;28;45766;-84
2021/12/13 09:11:37;;;;;;;;;12.25;10.00;;;;;16.86;100.00;102247.34;5043292;28;45330;-84
2021/12/13 09:14:19;;;;;;;;;11.75;11.00;;;;;17.01;100.00;102253.47;5043253;28;45347;-84
2021/12/13 09:17:17;;;;;;;;;15.00;8.00;;;;;17.09;100.00;102254.63;5042354;28;47231;-84
2021/12/13 09:19:45;;;;;;;;;11.00;6.50;;;;;16.49;100.00;102267.69;5042880;28;45767;-84
2021/12/13 09:22:16;;;;;;;;;8.50;7.00;;;;;16.47;100.00;102258.97;5061416;28;45438;-84
2021/12/13 09:25:00;;;;;;;;;5.00;2.75;;;;;16.34;100.00;102274.94;5061191;28;45276;-84
2021/12/13 09:27:38;;;;;;;;;9.50;7.50;;;;;16.50;100.00;102274.72;5059578;28;45308;-84
2021/12/13 09:30:18;;;;;;;;;7.75;5.00;;;;;16.46;100.00;102275.91;5060179;28;45487;-84
2021/12/13 09:32:53;;;;;;;;;8.25;5.00;;;;;16.34;100.00;102279.41;5061069;28;45418;-84
2021/12/13 09:35:21;;;;;;;;;7.25;5.50;;;;;16.34;100.00;102277.59;5038085;28;46246;-84
2021/12/13 09:37:48;;;;;;;;;4.75;4.00;;;;;16.26;100.00;102269.25;5060877;28;45331;-84
2021/12/13 09:40:17;;;;;;;;;8.75;3.75;;;;;16.42;100.00;102271.72;5061084;28;45633;-85
2021/12/13 09:42:46;;;;;;;;;7.00;4.25;;;;;16.39;100.00;102277.25;5061039;28;45249;-84
2021/12/13 09:45:14;;;;;;;;;8.75;8.25;;;;;16.24;100.00;102270.31;5051383;28;45244;-84
2021/12/13 09:47:42;;;;;;;;;4.00;4.00;;;;;16.28;100.00;102266.50;5029059;28;47986;-85
2021/12/13 09:50:17;;;;;;;;;7.50;4.50;;;;;16.53;100.00;102263.00;5060451;28;45388;-84
2021/12/13 09:53:01;;;;;;;;;4.00;4.00;;;;;16.50;100.00;102273.88;5043877;28;45395;-85
2021/12/13 09:55:26;;;;;;;;;2.00;2.00;;;;;16.13;100.00;102272.81;5060548;28;45419;-83
2021/12/13 09:57:53;;;;;;;;;4.75;2.00;;;;;16.21;100.00;102282.03;5060712;28;46471;-83
2021/12/13 10:00:27;;;;;;;;;7.00;4.00;;;;;16.16;100.00;102273.50;5060697;28;45363;-83
2021/12/13 10:03:00;;;;;;;;;3.00;3.00;;;;;16.14;100.00;102263.88;5042543;28;45270;-83
2021/12/13 10:05:30;;;;;;;;;2.00;2.00;;;;;16.76;100.00;102265.81;5059494;28;45454;-83
2021/12/13 10:08:01;;;;;;;;;3.00;2.00;;;;;16.83;100.00;102283.13;5060330;28;45657;-83
2021/12/13 10:10:36;;;;;;;;;2.50;2.50;;;;;16.83;100.00;102279.63;5060023;28;45367;-83
2021/12/13 10:13:07;;;;;;;;;8.50;4.00;;;;;16.65;100.00;102286.22;5060544;28;45584;-83
2021/12/13 10:15:38;;;;;;;;;2.75;2.75;;;;;16.56;100.00;102276.16;5047861;28;45328;-84
2021/12/13 10:18:09;;;;;;;;;3.00;1.00;;;;;16.18;100.00;102276.91;5057698;28;45544;-83
2021/12/13 10:20:41;;;;;;;;;1.50;1.50;;;;;16.25;100.00;102274.69;5060825;28;45474;-84
2021/12/13 10:23:10;;;;;;;;;3.00;3.00;;;;;16.32;100.00;102271.50;5058501;28;45418;-83
2021/12/13 10:25:40;;;;;;;;;5.00;4.00;;;;;16.14;100.00;102275.41;5060907;28;45406;-84
2021/12/13 10:28:10;;;;;;;;;5.25;4.75;;;;;15.59;100.00;102271.00;5041913;28;46034;-83
2021/12/13 10:30:41;;;;;;;;;6.25;4.00;;;;;15.50;100.00;102266.25;5059714;28;45454;-84
2021/12/13 10:33:07;;;;;;;;;4.50;3.75;;;;;15.46;100.00;102258.56;5059901;28;45423;-83
2021/12/13 10:35:37;;;;;;;;;5.00;3.50;;;;;15.57;100.00;102261.44;5041497;28;45538;-82
2021/12/13 10:38:10;;;;;;;;;4.25;2.25;;;;;15.51;100.00;102257.31;5047701;28;46469;-82
2021/12/13 10:40:47;;;;;;;;;3.25;3.00;;;;;15.77;100.00;102254.78;5058232;28;45450;-82
2021/12/13 10:43:20;;;;;;;;;2.25;2.00;;;;;16.10;100.00;102260.59;5042325;28;45377;-82
2021/12/13 10:46:12;;;;;;;;;4.50;3.00;;;;;16.11;100.00;102258.78;5040092;28;45573;-82
2021/12/13 10:48:45;;;;;;;;;2.75;2.00;;;;;16.03;100.00;102259.25;5042484;28;48347;-83
2021/12/13 10:51:22;;;;;;;;;1.00;1.00;;;;;16.08;100.00;102254.50;5049199;28;45403;-84
2021/12/13 10:53:51;;;;;;;;;3.00;2.75;;;;;16.10;100.00;102263.25;5061851;28;45289;-83
2021/12/13 10:56:25;;;;;;;;;4.00;2.25;;;;;16.09;100.00;102251.72;5061156;28;45494;-83
2021/12/13 10:58:58;;;;;;;;;2.00;2.00;;;;;16.18;100.00;102249.41;5056052;28;46213;-83
2021/12/13 11:01:29;;;;;;;;;4.50;2.50;;;;;16.34;100.00;102255.41;5042267;28;45541;-84
2021/12/13 11:03:57;;;;;;;;;3.00;3.00;;;;;16.01;100.00;102250.53;5059644;28;45438;-83
2021/12/13 11:06:26;;;;;;;;;12.00;8.00;;;;;16.07;100.00;102261.63;5042268;28;45250;-83
2021/12/13 11:09:02;;;;;;;;;;;;;;;;;;;;;
2021/12/13 11:11:40;;;;;;;;;4.00;4.00;;;;;15.75;100.00;102254.06;5058626;28;73042;-83
2021/12/13 11:14:12;;;;;;;;;5.00;1.50;;;;;15.76;100.00;102255.75;5059596;28;45327;-83
2021/12/13 11:16:41;;;;;;;;;7.50;5.25;;;;;15.66;100.00;102260.81;5059490;28;45430;-84
2021/12/13 11:19:12;;;;;;;;;3.25;3.00;;;;;15.58;100.00;102253.31;5059601;28;46160;-84
2021/12/13 11:21:39;;;;;;;;;6.00;6.00;;;;;15.63;100.00;102266.34;5040479;28;45649;-83
2021/12/13 11:24:09;;;;;;;;;4.50;4.25;;;;;15.42;100.00;102254.38;5063772;28;45500;-83
2021/12/13 11:26:39;;;;;;;;;7.50;5.25;;;;;15.49;100.00;102266.34;5044804;28;45484;-83
2021/12/13 11:29:14;;;;;;;;;9.25;8.00;;;;;15.29;100.00;102259.66;5044872;28;47355;-84
2021/12/13 11:31:52;;;;;;;;;12.75;9.00;;;;;15.85;100.00;102256.00;5062815;28;45322;-83
2021/12/13 11:34:42;;;;;;;;;10.50;9.25;;;;;15.68;100.00;102261.56;5056015;28;45340;-84
2021/12/13 12:01:46;;;;;;;;;;;;;;;;;;;;;
2021/12/13 12:04:59;;;;;;;;;;;;;;;;;;;;;
2021/12/13 12:25:59;;;;;;;;;;;;;;;;;;;;;
2021/12/13 12:32:35;;;;;;;;;;;;;;;;;;;;;
2021/12/13 12:56:55;;;;;;;;;;;;;;;;;;;;;
2021/12/13 13:00:11;;;;;;;;;;;;;;;;;;;;;
2021/12/13 13:14:11;;;;;;;;;;;;;;;;;;;;;
2021/12/13 13:32:58;;;;;;;;;;;;;;;;;;;;;
2021/12/13 13:42:45;;;;;;;;;;;;;;;;;;;;;
2021/12/13 13:49:34;;;;;;;;;;;;;;;;;;;;;
2021/12/13 13:52:24;;;;;;;;;;;;;;;;;;;;;
2021/12/13 14:02:27;;;;;;;;;21.50;16.50;;;;;16.21;100.00;102207.38;4948699;28;45421;-83
2021/12/13 14:04:59;;;;;;;;;21.75;16.75;;;;;16.09;100.00;102200.25;4990301;28;45376;-82
2021/12/13 14:08:10;;;;;;;;;19.75;17.25;;;;;16.41;100.00;102200.69;5000215;28;45326;-83
2021/12/13 14:16:30;;;;;;;;;13.25;10.50;;;;;15.76;100.00;102190.00;4952105;28;46522;-82
2021/12/13 14:19:25;;;;;;;;;;;;;;;;;;;;;
2021/12/13 14:22:15;;;;;;;;;14.00;10.00;;;;;16.34;100.00;102197.59;4999719;28;72044;-85
2021/12/13 14:24:50;;;;;;;;;13.25;12.00;;;;;16.35;100.00;102199.31;4997932;28;45381;-85
2021/12/13 14:27:28;;;;;;;;;14.00;12.50;;;;;16.29;100.00;102202.41;4998890;28;45808;-85
2021/12/13 14:30:29;;;;;;;;;15.00;11.00;;;;;16.18;100.00;102204.09;4999071;28;49119;-86
2021/12/13 14:36:57;;;;;;;;;;;;;;;;;;;;;
2021/12/13 14:40:13;;;;;;;;;15.00;9.75;;;;;15.56;100.00;102193.16;4999124;28;45442;-85
2021/12/13 14:42:47;;;;;;;;;15.25;11.25;;;;;15.73;100.00;102194.72;4955580;28;45500;-85
2021/12/13 14:45:16;;;;;;;;;14.25;13.25;;;;;15.77;100.00;102194.38;4963551;28;45332;-85
2021/12/13 14:47:49;;;;;;;;;14.00;12.00;;;;;15.85;100.00;102204.53;5000232;28;45517;-85
2021/12/13 14:50:28;;;;;;;;;14.75;13.25;;;;;16.14;100.00;102200.78;4998340;28;45500;-87
2021/12/13 15:07:49;;;;;;;;;;;;;;;;;;;;;
2021/12/13 15:17:01;;;;;;;;;;;;;;;;;;;;;
2021/12/13 15:23:51;;;;;;;;;;;;;;;;;;;;;
2021/12/13 15:34:17;;;;;;;;;;;;;;;;;;;;;
2021/12/13 15:37:25;;;;;;;;;;;;;;;;;;;;;
2021/12/13 15:40:50;;;;;;;;;;;;;;;;;;;;;
2021/12/13 15:49:56;;;;;;;;;17.75;15.00;;;;;15.79;100.00;102194.28;4911762;28;45543;-86
2021/12/13 15:52:27;;;;;;;;;17.75;12.75;;;;;15.91;100.00;102188.16;4919458;28;45458;-87
2021/12/13 15:54:56;;;;;;;;;15.50;13.25;;;;;15.87;100.00;102205.28;4919800;28;45291;-86
2021/12/13 15:57:35;;;;;;;;;16.50;13.00;;;;;15.86;100.00;102198.25;4953425;28;46134;-87
2021/12/13 16:00:09;;;;;;;;;15.25;13.25;;;;;15.78;100.00;102195.25;4997926;28;46013;-85
2021/12/13 16:02:37;;;;;;;;;13.75;11.25;;;;;15.56;100.00;102179.84;4999044;28;45704;-84
2021/12/13 16:05:19;;;;;;;;;14.00;10.75;;;;;15.46;100.00;102192.88;4999049;28;45353;-86
2021/12/13 16:08:31;;;;;;;;;9.00;8.50;;;;;15.64;100.00;102194.38;4998915;28;46060;-87
2021/12/13 16:11:05;;;;;;;;;13.25;11.25;;;;;15.65;100.00;102182.75;4929048;28;45613;-85
2021/12/13 16:13:30;;;;;;;;;14.50;12.00;;;;;15.66;100.00;102192.44;4998093;28;45472;-85